sensor_id;sensor_type;location;lat;lon;timestamp;P1;durP1;ratioP1;P2;durP2;ratioP2
15946;SDS011;8072;52.554;7.966;2023-08-07T00:00:34;8.33;;;4.43;;
15946;SDS011;8072;52.554;7.966;2023-08-07T00:03:00;9.67;;;4.33;;
15946;SDS011;8072;52.554;7.966;2023-08-07T00:05:27;5.00;;;4.30;;
15946;SDS011;8072;52.554;7.966;2023-08-07T00:07:53;9.50;;;5.07;;
15946;SDS011;8072;52.554;7.966;2023-08-07T00:10:19;8.10;;;4.60;;
15946;SDS011;8072;52.554;7.966;2023-08-07T00:12:45;7.97;;;4.30;;
15946;SDS011;8072;52.554;7.966;2023-08-07T00:15:10;7.27;;;4.47;;
15946;SDS011;8072;52.554;7.966;2023-08-07T00:17:36;7.90;;;4.43;;
15946;SDS011;8072;52.554;7.966;2023-08-07T00:20:03;7.97;;;4.40;;
15946;SDS011;8072;52.554;7.966;2023-08-07T00:22:29;9.43;;;4.60;;
15946;SDS011;8072;52.554;7.966;2023-08-07T00:24:55;7.90;;;4.73;;
15946;SDS011;8072;52.554;7.966;2023-08-07T00:27:21;10.03;;;4.90;;
15946;SDS011;8072;52.554;7.966;2023-08-07T00:29:48;9.63;;;4.40;;
15946;SDS011;8072;52.554;7.966;2023-08-07T00:32:14;8.77;;;4.70;;
15946;SDS011;8072;52.554;7.966;2023-08-07T00:34:39;9.33;;;5.33;;
15946;SDS011;8072;52.554;7.966;2023-08-07T00:37:05;8.43;;;5.60;;
15946;SDS011;8072;52.554;7.966;2023-08-07T00:39:31;9.50;;;4.60;;
15946;SDS011;8072;52.554;7.966;2023-08-07T00:41:57;10.87;;;4.73;;
15946;SDS011;8072;52.554;7.966;2023-08-07T00:44:22;9.67;;;5.50;;
15946;SDS011;8072;52.554;7.966;2023-08-07T00:46:48;8.93;;;4.90;;
15946;SDS011;8072;52.554;7.966;2023-08-07T00:49:15;8.00;;;5.10;;
15946;SDS011;8072;52.554;7.966;2023-08-07T00:51:43;12.07;;;4.53;;
15946;SDS011;8072;52.554;7.966;2023-08-07T00:54:10;8.73;;;4.73;;
15946;SDS011;8072;52.554;7.966;2023-08-07T00:56:39;9.73;;;5.00;;
15946;SDS011;8072;52.554;7.966;2023-08-07T00:59:05;6.70;;;5.03;;
15946;SDS011;8072;52.554;7.966;2023-08-07T01:01:31;9.27;;;5.30;;
15946;SDS011;8072;52.554;7.966;2023-08-07T01:03:58;7.27;;;5.23;;
15946;SDS011;8072;52.554;7.966;2023-08-07T01:06:23;10.77;;;5.60;;
15946;SDS011;8072;52.554;7.966;2023-08-07T01:08:49;8.40;;;5.93;;
15946;SDS011;8072;52.554;7.966;2023-08-07T01:19:12;10.90;;;5.40;;
15946;SDS011;8072;52.554;7.966;2023-08-07T01:22:03;9.67;;;6.40;;
15946;SDS011;8072;52.554;7.966;2023-08-07T01:24:35;8.63;;;5.63;;
15946;SDS011;8072;52.554;7.966;2023-08-07T01:27:46;9.37;;;6.03;;
15946;SDS011;8072;52.554;7.966;2023-08-07T01:35:46;11.57;;;5.60;;
15946;SDS011;8072;52.554;7.966;2023-08-07T01:38:16;7.17;;;5.37;;
15946;SDS011;8072;52.554;7.966;2023-08-07T01:40:43;9.80;;;5.70;;
15946;SDS011;8072;52.554;7.966;2023-08-07T01:43:09;8.90;;;5.23;;
15946;SDS011;8072;52.554;7.966;2023-08-07T01:45:35;8.23;;;5.37;;
15946;SDS011;8072;52.554;7.966;2023-08-07T01:48:01;14.17;;;5.57;;
15946;SDS011;8072;52.554;7.966;2023-08-07T01:50:27;9.93;;;5.10;;
15946;SDS011;8072;52.554;7.966;2023-08-07T01:52:53;6.80;;;5.20;;
15946;SDS011;8072;52.554;7.966;2023-08-07T01:55:19;8.57;;;5.83;;
15946;SDS011;8072;52.554;7.966;2023-08-07T01:57:46;8.23;;;5.10;;
15946;SDS011;8072;52.554;7.966;2023-08-07T02:00:12;8.83;;;5.50;;
15946;SDS011;8072;52.554;7.966;2023-08-07T02:02:38;8.53;;;5.73;;
15946;SDS011;8072;52.554;7.966;2023-08-07T02:05:04;10.20;;;5.87;;
15946;SDS011;8072;52.554;7.966;2023-08-07T02:07:30;9.80;;;5.40;;
15946;SDS011;8072;52.554;7.966;2023-08-07T02:09:56;11.50;;;5.70;;
15946;SDS011;8072;52.554;7.966;2023-08-07T02:12:23;7.47;;;5.40;;
15946;SDS011;8072;52.554;7.966;2023-08-07T02:14:50;8.20;;;5.10;;
15946;SDS011;8072;52.554;7.966;2023-08-07T02:17:16;9.10;;;5.23;;
15946;SDS011;8072;52.554;7.966;2023-08-07T02:19:42;7.33;;;5.10;;
15946;SDS011;8072;52.554;7.966;2023-08-07T02:22:07;10.17;;;5.03;;
15946;SDS011;8072;52.554;7.966;2023-08-07T02:24:33;8.83;;;5.40;;
15946;SDS011;8072;52.554;7.966;2023-08-07T02:26:59;9.43;;;5.57;;
15946;SDS011;8072;52.554;7.966;2023-08-07T02:29:25;7.30;;;5.03;;
15946;SDS011;8072;52.554;7.966;2023-08-07T02:31:51;8.70;;;5.97;;
15946;SDS011;8072;52.554;7.966;2023-08-07T02:34:17;8.83;;;5.10;;
15946;SDS011;8072;52.554;7.966;2023-08-07T02:36:42;10.20;;;5.60;;
15946;SDS011;8072;52.554;7.966;2023-08-07T02:39:08;6.93;;;4.87;;
15946;SDS011;8072;52.554;7.966;2023-08-07T02:41:34;7.40;;;5.63;;
15946;SDS011;8072;52.554;7.966;2023-08-07T02:44:00;12.00;;;6.77;;
15946;SDS011;8072;52.554;7.966;2023-08-07T02:46:25;8.00;;;5.60;;
15946;SDS011;8072;52.554;7.966;2023-08-07T02:48:51;10.07;;;6.13;;
15946;SDS011;8072;52.554;7.966;2023-08-07T02:51:18;8.90;;;5.53;;
15946;SDS011;8072;52.554;7.966;2023-08-07T02:53:44;8.83;;;5.13;;
15946;SDS011;8072;52.554;7.966;2023-08-07T02:56:10;7.20;;;5.60;;
15946;SDS011;8072;52.554;7.966;2023-08-07T02:58:36;9.60;;;5.77;;
15946;SDS011;8072;52.554;7.966;2023-08-07T03:01:04;9.53;;;5.50;;
15946;SDS011;8072;52.554;7.966;2023-08-07T03:03:33;8.97;;;5.27;;
15946;SDS011;8072;52.554;7.966;2023-08-07T03:06:00;11.60;;;5.53;;
15946;SDS011;8072;52.554;7.966;2023-08-07T03:08:26;8.20;;;5.10;;
15946;SDS011;8072;52.554;7.966;2023-08-07T03:10:52;8.73;;;5.17;;
15946;SDS011;8072;52.554;7.966;2023-08-07T03:13:21;7.87;;;5.70;;
15946;SDS011;8072;52.554;7.966;2023-08-07T03:16:04;9.20;;;4.90;;
15946;SDS011;8072;52.554;7.966;2023-08-07T03:18:32;8.07;;;5.03;;
15946;SDS011;8072;52.554;7.966;2023-08-07T03:20:58;6.47;;;4.63;;
15946;SDS011;8072;52.554;7.966;2023-08-07T03:23:25;9.50;;;4.77;;
15946;SDS011;8072;52.554;7.966;2023-08-07T03:26:01;8.53;;;5.20;;
15946;SDS011;8072;52.554;7.966;2023-08-07T03:28:32;6.33;;;4.40;;
15946;SDS011;8072;52.554;7.966;2023-08-07T03:31:00;8.00;;;4.60;;
15946;SDS011;8072;52.554;7.966;2023-08-07T03:33:26;8.37;;;4.70;;
15946;SDS011;8072;52.554;7.966;2023-08-07T03:35:52;9.17;;;4.63;;
15946;SDS011;8072;52.554;7.966;2023-08-07T03:38:18;6.10;;;3.73;;
15946;SDS011;8072;52.554;7.966;2023-08-07T03:40:44;5.63;;;3.90;;
15946;SDS011;8072;52.554;7.966;2023-08-07T03:43:10;11.27;;;4.50;;
15946;SDS011;8072;52.554;7.966;2023-08-07T03:45:36;6.90;;;3.97;;
15946;SDS011;8072;52.554;7.966;2023-08-07T03:48:02;6.20;;;3.70;;
15946;SDS011;8072;52.554;7.966;2023-08-07T03:50:28;7.90;;;4.10;;
15946;SDS011;8072;52.554;7.966;2023-08-07T03:52:56;5.73;;;3.90;;
15946;SDS011;8072;52.554;7.966;2023-08-07T03:55:21;6.03;;;3.80;;
15946;SDS011;8072;52.554;7.966;2023-08-07T03:57:47;9.30;;;4.50;;
15946;SDS011;8072;52.554;7.966;2023-08-07T04:00:17;6.33;;;3.63;;
15946;SDS011;8072;52.554;7.966;2023-08-07T04:02:43;7.43;;;4.17;;
15946;SDS011;8072;52.554;7.966;2023-08-07T04:05:10;8.43;;;3.83;;
15946;SDS011;8072;52.554;7.966;2023-08-07T04:07:35;7.37;;;4.07;;
15946;SDS011;8072;52.554;7.966;2023-08-07T04:10:01;7.23;;;4.13;;
15946;SDS011;8072;52.554;7.966;2023-08-07T04:12:27;5.17;;;3.77;;
15946;SDS011;8072;52.554;7.966;2023-08-07T04:14:53;6.33;;;4.03;;
15946;SDS011;8072;52.554;7.966;2023-08-07T04:17:19;6.30;;;3.87;;
15946;SDS011;8072;52.554;7.966;2023-08-07T04:19:44;7.13;;;4.20;;
15946;SDS011;8072;52.554;7.966;2023-08-07T04:22:10;6.67;;;3.97;;
15946;SDS011;8072;52.554;7.966;2023-08-07T04:24:36;7.03;;;3.90;;
15946;SDS011;8072;52.554;7.966;2023-08-07T04:27:02;6.60;;;4.07;;
15946;SDS011;8072;52.554;7.966;2023-08-07T04:29:27;7.93;;;4.10;;
15946;SDS011;8072;52.554;7.966;2023-08-07T04:31:53;9.13;;;4.30;;
15946;SDS011;8072;52.554;7.966;2023-08-07T04:34:19;9.77;;;4.20;;
15946;SDS011;8072;52.554;7.966;2023-08-07T04:36:45;8.20;;;3.60;;
15946;SDS011;8072;52.554;7.966;2023-08-07T04:39:10;8.17;;;3.73;;
15946;SDS011;8072;52.554;7.966;2023-08-07T04:41:38;5.37;;;3.50;;
15946;SDS011;8072;52.554;7.966;2023-08-07T04:44:04;7.87;;;3.50;;
15946;SDS011;8072;52.554;7.966;2023-08-07T04:46:30;7.50;;;3.83;;
15946;SDS011;8072;52.554;7.966;2023-08-07T04:48:56;7.87;;;3.20;;
15946;SDS011;8072;52.554;7.966;2023-08-07T04:51:21;11.83;;;3.87;;
15946;SDS011;8072;52.554;7.966;2023-08-07T04:53:47;7.03;;;3.80;;
15946;SDS011;8072;52.554;7.966;2023-08-07T04:56:16;6.27;;;3.37;;
15946;SDS011;8072;52.554;7.966;2023-08-07T04:58:42;7.70;;;2.87;;
15946;SDS011;8072;52.554;7.966;2023-08-07T05:01:08;10.73;;;3.60;;
15946;SDS011;8072;52.554;7.966;2023-08-07T05:03:34;8.37;;;3.13;;
15946;SDS011;8072;52.554;7.966;2023-08-07T05:06:00;5.97;;;2.90;;
15946;SDS011;8072;52.554;7.966;2023-08-07T05:08:26;8.47;;;3.40;;
15946;SDS011;8072;52.554;7.966;2023-08-07T05:10:52;10.30;;;3.53;;
15946;SDS011;8072;52.554;7.966;2023-08-07T05:13:18;9.17;;;3.20;;
15946;SDS011;8072;52.554;7.966;2023-08-07T05:15:46;8.07;;;3.30;;
15946;SDS011;8072;52.554;7.966;2023-08-07T05:18:12;7.10;;;3.00;;
15946;SDS011;8072;52.554;7.966;2023-08-07T05:20:38;10.27;;;3.80;;
15946;SDS011;8072;52.554;7.966;2023-08-07T05:23:04;6.53;;;3.10;;
15946;SDS011;8072;52.554;7.966;2023-08-07T05:25:30;4.77;;;3.17;;
15946;SDS011;8072;52.554;7.966;2023-08-07T05:27:56;8.57;;;3.40;;
15946;SDS011;8072;52.554;7.966;2023-08-07T05:30:22;10.33;;;3.43;;
15946;SDS011;8072;52.554;7.966;2023-08-07T05:32:47;7.07;;;3.10;;
15946;SDS011;8072;52.554;7.966;2023-08-07T05:35:13;5.50;;;3.10;;
15946;SDS011;8072;52.554;7.966;2023-08-07T05:37:39;7.90;;;3.10;;
15946;SDS011;8072;52.554;7.966;2023-08-07T05:40:05;10.47;;;3.00;;
15946;SDS011;8072;52.554;7.966;2023-08-07T05:42:31;8.33;;;3.20;;
15946;SDS011;8072;52.554;7.966;2023-08-07T05:44:58;7.27;;;3.07;;
15946;SDS011;8072;52.554;7.966;2023-08-07T05:47:24;14.77;;;3.73;;
15946;SDS011;8072;52.554;7.966;2023-08-07T05:49:50;6.93;;;3.13;;
15946;SDS011;8072;52.554;7.966;2023-08-07T05:52:16;10.20;;;3.00;;
15946;SDS011;8072;52.554;7.966;2023-08-07T05:54:42;9.23;;;3.00;;
15946;SDS011;8072;52.554;7.966;2023-08-07T05:57:08;8.03;;;3.93;;
15946;SDS011;8072;52.554;7.966;2023-08-07T05:59:35;9.67;;;3.30;;
15946;SDS011;8072;52.554;7.966;2023-08-07T06:02:01;6.87;;;2.70;;
15946;SDS011;8072;52.554;7.966;2023-08-07T06:04:27;9.60;;;3.00;;
15946;SDS011;8072;52.554;7.966;2023-08-07T06:06:53;5.60;;;2.60;;
15946;SDS011;8072;52.554;7.966;2023-08-07T06:09:19;10.33;;;2.70;;
15946;SDS011;8072;52.554;7.966;2023-08-07T06:11:46;10.40;;;3.17;;
15946;SDS011;8072;52.554;7.966;2023-08-07T06:14:12;13.23;;;3.27;;
15946;SDS011;8072;52.554;7.966;2023-08-07T06:16:38;8.03;;;2.87;;
15946;SDS011;8072;52.554;7.966;2023-08-07T06:19:04;11.60;;;3.33;;
15946;SDS011;8072;52.554;7.966;2023-08-07T06:21:29;5.43;;;2.50;;
15946;SDS011;8072;52.554;7.966;2023-08-07T06:23:56;8.53;;;2.63;;
15946;SDS011;8072;52.554;7.966;2023-08-07T06:26:22;9.13;;;2.70;;
15946;SDS011;8072;52.554;7.966;2023-08-07T06:28:48;9.03;;;2.83;;
15946;SDS011;8072;52.554;7.966;2023-08-07T06:31:15;6.70;;;2.40;;
15946;SDS011;8072;52.554;7.966;2023-08-07T06:33:41;5.93;;;2.27;;
15946;SDS011;8072;52.554;7.966;2023-08-07T06:36:07;8.87;;;2.60;;
15946;SDS011;8072;52.554;7.966;2023-08-07T06:38:35;10.80;;;2.50;;
15946;SDS011;8072;52.554;7.966;2023-08-07T06:41:01;7.73;;;2.40;;
15946;SDS011;8072;52.554;7.966;2023-08-07T06:43:27;8.37;;;2.40;;
15946;SDS011;8072;52.554;7.966;2023-08-07T06:45:54;4.10;;;2.40;;
15946;SDS011;8072;52.554;7.966;2023-08-07T06:48:20;8.83;;;3.23;;
15946;SDS011;8072;52.554;7.966;2023-08-07T06:50:47;6.87;;;2.20;;
15946;SDS011;8072;52.554;7.966;2023-08-07T06:53:13;8.67;;;2.33;;
15946;SDS011;8072;52.554;7.966;2023-08-07T06:55:40;6.20;;;2.40;;
15946;SDS011;8072;52.554;7.966;2023-08-07T06:58:06;7.70;;;2.27;;
15946;SDS011;8072;52.554;7.966;2023-08-07T07:00:33;9.93;;;3.20;;
15946;SDS011;8072;52.554;7.966;2023-08-07T07:03:00;11.63;;;2.80;;
15946;SDS011;8072;52.554;7.966;2023-08-07T07:05:26;11.20;;;2.90;;
15946;SDS011;8072;52.554;7.966;2023-08-07T07:07:52;4.30;;;2.20;;
15946;SDS011;8072;52.554;7.966;2023-08-07T07:10:19;6.33;;;2.30;;
15946;SDS011;8072;52.554;7.966;2023-08-07T07:12:45;6.10;;;2.30;;
15946;SDS011;8072;52.554;7.966;2023-08-07T07:15:11;3.70;;;2.13;;
15946;SDS011;8072;52.554;7.966;2023-08-07T07:17:37;5.17;;;2.00;;
15946;SDS011;8072;52.554;7.966;2023-08-07T07:20:02;12.90;;;2.50;;
15946;SDS011;8072;52.554;7.966;2023-08-07T07:22:29;8.33;;;2.23;;
15946;SDS011;8072;52.554;7.966;2023-08-07T07:24:55;5.83;;;2.43;;
15946;SDS011;8072;52.554;7.966;2023-08-07T07:27:20;6.50;;;2.37;;
15946;SDS011;8072;52.554;7.966;2023-08-07T07:29:47;7.47;;;2.30;;
15946;SDS011;8072;52.554;7.966;2023-08-07T07:32:13;5.53;;;2.37;;
15946;SDS011;8072;52.554;7.966;2023-08-07T07:34:39;6.87;;;2.40;;
15946;SDS011;8072;52.554;7.966;2023-08-07T07:37:05;5.13;;;2.40;;
15946;SDS011;8072;52.554;7.966;2023-08-07T07:39:31;8.70;;;2.57;;
15946;SDS011;8072;52.554;7.966;2023-08-07T07:41:57;10.93;;;2.80;;
15946;SDS011;8072;52.554;7.966;2023-08-07T07:44:22;8.07;;;2.33;;
15946;SDS011;8072;52.554;7.966;2023-08-07T07:46:48;7.07;;;2.70;;
15946;SDS011;8072;52.554;7.966;2023-08-07T07:49:14;9.90;;;3.30;;
15946;SDS011;8072;52.554;7.966;2023-08-07T07:51:40;9.63;;;2.90;;
15946;SDS011;8072;52.554;7.966;2023-08-07T07:54:05;12.33;;;2.93;;
15946;SDS011;8072;52.554;7.966;2023-08-07T07:56:31;12.17;;;2.77;;
15946;SDS011;8072;52.554;7.966;2023-08-07T07:58:57;12.67;;;2.90;;
15946;SDS011;8072;52.554;7.966;2023-08-07T08:01:23;16.13;;;3.00;;
15946;SDS011;8072;52.554;7.966;2023-08-07T08:03:48;12.93;;;3.37;;
15946;SDS011;8072;52.554;7.966;2023-08-07T08:06:14;10.00;;;2.67;;
15946;SDS011;8072;52.554;7.966;2023-08-07T08:08:41;10.57;;;2.80;;
15946;SDS011;8072;52.554;7.966;2023-08-07T08:11:07;10.07;;;2.80;;
15946;SDS011;8072;52.554;7.966;2023-08-07T08:13:33;5.17;;;1.77;;
15946;SDS011;8072;52.554;7.966;2023-08-07T08:16:03;5.13;;;2.07;;
15946;SDS011;8072;52.554;7.966;2023-08-07T08:18:30;9.53;;;2.30;;
15946;SDS011;8072;52.554;7.966;2023-08-07T08:20:56;8.73;;;2.60;;
15946;SDS011;8072;52.554;7.966;2023-08-07T08:23:21;7.77;;;2.10;;
15946;SDS011;8072;52.554;7.966;2023-08-07T08:25:50;10.83;;;2.30;;
15946;SDS011;8072;52.554;7.966;2023-08-07T08:28:16;8.30;;;2.20;;
15946;SDS011;8072;52.554;7.966;2023-08-07T08:30:42;8.93;;;2.70;;
15946;SDS011;8072;52.554;7.966;2023-08-07T08:33:08;8.33;;;2.27;;
15946;SDS011;8072;52.554;7.966;2023-08-07T08:35:37;6.07;;;2.50;;
15946;SDS011;8072;52.554;7.966;2023-08-07T08:38:03;7.97;;;2.87;;
15946;SDS011;8072;52.554;7.966;2023-08-07T08:40:30;9.33;;;2.30;;
15946;SDS011;8072;52.554;7.966;2023-08-07T08:42:56;7.20;;;2.33;;
15946;SDS011;8072;52.554;7.966;2023-08-07T08:45:23;9.93;;;2.73;;
15946;SDS011;8072;52.554;7.966;2023-08-07T08:47:51;9.27;;;2.73;;
15946;SDS011;8072;52.554;7.966;2023-08-07T08:50:20;7.00;;;2.33;;
15946;SDS011;8072;52.554;7.966;2023-08-07T08:52:46;6.43;;;2.70;;
15946;SDS011;8072;52.554;7.966;2023-08-07T08:55:13;7.73;;;2.70;;
15946;SDS011;8072;52.554;7.966;2023-08-07T08:57:39;10.60;;;3.10;;
15946;SDS011;8072;52.554;7.966;2023-08-07T09:00:06;10.23;;;2.97;;
15946;SDS011;8072;52.554;7.966;2023-08-07T09:02:50;8.60;;;2.83;;
15946;SDS011;8072;52.554;7.966;2023-08-07T09:05:18;6.90;;;2.60;;
15946;SDS011;8072;52.554;7.966;2023-08-07T09:07:47;7.97;;;2.50;;
15946;SDS011;8072;52.554;7.966;2023-08-07T09:10:14;10.60;;;2.47;;
15946;SDS011;8072;52.554;7.966;2023-08-07T09:12:42;9.27;;;2.73;;
15946;SDS011;8072;52.554;7.966;2023-08-07T09:15:18;7.40;;;2.00;;
15946;SDS011;8072;52.554;7.966;2023-08-07T09:17:45;4.77;;;1.90;;
15946;SDS011;8072;52.554;7.966;2023-08-07T09:20:12;5.30;;;1.50;;
15946;SDS011;8072;52.554;7.966;2023-08-07T09:22:40;6.70;;;1.70;;
15946;SDS011;8072;52.554;7.966;2023-08-07T09:25:06;8.30;;;2.00;;
15946;SDS011;8072;52.554;7.966;2023-08-07T09:27:34;7.80;;;2.13;;
15946;SDS011;8072;52.554;7.966;2023-08-07T09:30:04;4.63;;;2.03;;
15946;SDS011;8072;52.554;7.966;2023-08-07T09:32:34;9.40;;;2.33;;
15946;SDS011;8072;52.554;7.966;2023-08-07T09:35:02;9.27;;;2.53;;
15946;SDS011;8072;52.554;7.966;2023-08-07T09:37:30;9.33;;;2.97;;
15946;SDS011;8072;52.554;7.966;2023-08-07T09:39:56;13.57;;;2.90;;
15946;SDS011;8072;52.554;7.966;2023-08-07T09:42:22;9.93;;;2.40;;
15946;SDS011;8072;52.554;7.966;2023-08-07T09:44:48;7.13;;;2.30;;
15946;SDS011;8072;52.554;7.966;2023-08-07T09:49:40;6.83;;;2.50;;
15946;SDS011;8072;52.554;7.966;2023-08-07T09:52:07;9.07;;;2.90;;
15946;SDS011;8072;52.554;7.966;2023-08-07T09:54:34;7.30;;;2.53;;
15946;SDS011;8072;52.554;7.966;2023-08-07T09:57:01;5.03;;;2.10;;
15946;SDS011;8072;52.554;7.966;2023-08-07T09:59:27;8.97;;;2.57;;
15946;SDS011;8072;52.554;7.966;2023-08-07T10:01:57;12.63;;;2.60;;
15946;SDS011;8072;52.554;7.966;2023-08-07T10:04:25;6.73;;;2.20;;
15946;SDS011;8072;52.554;7.966;2023-08-07T10:06:51;5.80;;;2.10;;
15946;SDS011;8072;52.554;7.966;2023-08-07T10:09:18;7.03;;;2.13;;
15946;SDS011;8072;52.554;7.966;2023-08-07T10:11:45;7.30;;;2.30;;
15946;SDS011;8072;52.554;7.966;2023-08-07T10:14:12;9.03;;;2.73;;
15946;SDS011;8072;52.554;7.966;2023-08-07T10:16:39;5.37;;;2.20;;
15946;SDS011;8072;52.554;7.966;2023-08-07T10:19:06;8.50;;;2.60;;
15946;SDS011;8072;52.554;7.966;2023-08-07T10:21:35;7.43;;;2.50;;
15946;SDS011;8072;52.554;7.966;2023-08-07T10:24:04;9.17;;;2.50;;
15946;SDS011;8072;52.554;7.966;2023-08-07T10:26:32;4.43;;;2.10;;
15946;SDS011;8072;52.554;7.966;2023-08-07T10:29:00;9.97;;;3.07;;
15946;SDS011;8072;52.554;7.966;2023-08-07T10:31:29;5.63;;;2.20;;
15946;SDS011;8072;52.554;7.966;2023-08-07T10:33:56;8.00;;;2.20;;
15946;SDS011;8072;52.554;7.966;2023-08-07T10:36:23;6.93;;;2.30;;
15946;SDS011;8072;52.554;7.966;2023-08-07T10:39:15;7.47;;;2.40;;
15946;SDS011;8072;52.554;7.966;2023-08-07T10:41:45;8.53;;;2.50;;
15946;SDS011;8072;52.554;7.966;2023-08-07T10:46:53;7.93;;;2.57;;
15946;SDS011;8072;52.554;7.966;2023-08-07T10:49:37;9.60;;;2.20;;
15946;SDS011;8072;52.554;7.966;2023-08-07T10:52:11;8.37;;;1.83;;
15946;SDS011;8072;52.554;7.966;2023-08-07T10:54:46;7.00;;;2.03;;
15946;SDS011;8072;52.554;7.966;2023-08-07T10:57:15;10.00;;;2.00;;
15946;SDS011;8072;52.554;7.966;2023-08-07T11:02:29;8.20;;;2.20;;
15946;SDS011;8072;52.554;7.966;2023-08-07T11:04:55;7.67;;;2.53;;
15946;SDS011;8072;52.554;7.966;2023-08-07T11:07:22;7.40;;;2.30;;
15946;SDS011;8072;52.554;7.966;2023-08-07T11:09:55;6.67;;;2.30;;
15946;SDS011;8072;52.554;7.966;2023-08-07T11:12:25;8.50;;;2.30;;
15946;SDS011;8072;52.554;7.966;2023-08-07T11:14:52;7.43;;;1.90;;
15946;SDS011;8072;52.554;7.966;2023-08-07T11:17:21;9.50;;;2.20;;
15946;SDS011;8072;52.554;7.966;2023-08-07T11:19:53;7.13;;;2.07;;
15946;SDS011;8072;52.554;7.966;2023-08-07T11:22:20;8.17;;;1.90;;
15946;SDS011;8072;52.554;7.966;2023-08-07T11:24:46;4.63;;;1.90;;
15946;SDS011;8072;52.554;7.966;2023-08-07T11:27:12;6.43;;;1.87;;
15946;SDS011;8072;52.554;7.966;2023-08-07T11:29:38;6.80;;;1.93;;
15946;SDS011;8072;52.554;7.966;2023-08-07T11:32:04;5.57;;;2.10;;
15946;SDS011;8072;52.554;7.966;2023-08-07T11:34:30;5.47;;;1.90;;
15946;SDS011;8072;52.554;7.966;2023-08-07T11:36:56;7.30;;;1.50;;
15946;SDS011;8072;52.554;7.966;2023-08-07T11:39:23;7.27;;;2.00;;
15946;SDS011;8072;52.554;7.966;2023-08-07T11:41:53;5.23;;;1.97;;
15946;SDS011;8072;52.554;7.966;2023-08-07T11:44:19;7.87;;;2.20;;
15946;SDS011;8072;52.554;7.966;2023-08-07T11:46:45;8.27;;;2.30;;
15946;SDS011;8072;52.554;7.966;2023-08-07T11:49:10;6.87;;;1.90;;
15946;SDS011;8072;52.554;7.966;2023-08-07T11:51:37;9.83;;;1.90;;
15946;SDS011;8072;52.554;7.966;2023-08-07T11:54:03;6.20;;;2.00;;
15946;SDS011;8072;52.554;7.966;2023-08-07T11:56:29;5.83;;;1.70;;
15946;SDS011;8072;52.554;7.966;2023-08-07T11:58:56;5.43;;;1.93;;
15946;SDS011;8072;52.554;7.966;2023-08-07T12:01:24;7.63;;;1.80;;
15946;SDS011;8072;52.554;7.966;2023-08-07T12:03:52;6.60;;;1.90;;
15946;SDS011;8072;52.554;7.966;2023-08-07T12:06:18;6.57;;;1.90;;
15946;SDS011;8072;52.554;7.966;2023-08-07T12:08:44;5.20;;;2.00;;
15946;SDS011;8072;52.554;7.966;2023-08-07T12:11:11;4.80;;;2.00;;
15946;SDS011;8072;52.554;7.966;2023-08-07T12:13:41;6.50;;;1.70;;
15946;SDS011;8072;52.554;7.966;2023-08-07T12:16:09;7.23;;;2.20;;
15946;SDS011;8072;52.554;7.966;2023-08-07T12:18:42;6.33;;;2.17;;
15946;SDS011;8072;52.554;7.966;2023-08-07T12:21:14;6.00;;;2.30;;
15946;SDS011;8072;52.554;7.966;2023-08-07T12:23:51;5.93;;;1.90;;
15946;SDS011;8072;52.554;7.966;2023-08-07T12:26:20;5.80;;;2.17;;
15946;SDS011;8072;52.554;7.966;2023-08-07T12:28:45;9.67;;;2.50;;
15946;SDS011;8072;52.554;7.966;2023-08-07T12:31:11;5.47;;;1.90;;
15946;SDS011;8072;52.554;7.966;2023-08-07T12:33:37;6.00;;;1.90;;
15946;SDS011;8072;52.554;7.966;2023-08-07T12:36:03;8.90;;;2.43;;
15946;SDS011;8072;52.554;7.966;2023-08-07T12:38:29;7.47;;;2.83;;
15946;SDS011;8072;52.554;7.966;2023-08-07T12:40:54;8.23;;;2.17;;
15946;SDS011;8072;52.554;7.966;2023-08-07T12:43:21;4.80;;;1.80;;
15946;SDS011;8072;52.554;7.966;2023-08-07T12:45:46;5.73;;;2.00;;
15946;SDS011;8072;52.554;7.966;2023-08-07T12:48:12;8.30;;;1.83;;
15946;SDS011;8072;52.554;7.966;2023-08-07T12:50:39;4.70;;;1.77;;
15946;SDS011;8072;52.554;7.966;2023-08-07T12:53:05;4.20;;;1.67;;
15946;SDS011;8072;52.554;7.966;2023-08-07T12:55:31;2.90;;;1.63;;
15946;SDS011;8072;52.554;7.966;2023-08-07T12:57:57;6.53;;;1.63;;
15946;SDS011;8072;52.554;7.966;2023-08-07T13:00:24;3.83;;;2.10;;
15946;SDS011;8072;52.554;7.966;2023-08-07T13:02:50;6.87;;;2.23;;
15946;SDS011;8072;52.554;7.966;2023-08-07T13:05:17;6.27;;;1.73;;
15946;SDS011;8072;52.554;7.966;2023-08-07T13:07:44;3.80;;;1.80;;
15946;SDS011;8072;52.554;7.966;2023-08-07T13:10:11;5.37;;;1.60;;
15946;SDS011;8072;52.554;7.966;2023-08-07T13:12:39;7.83;;;2.23;;
15946;SDS011;8072;52.554;7.966;2023-08-07T13:15:06;7.83;;;1.80;;
15946;SDS011;8072;52.554;7.966;2023-08-07T13:17:34;4.73;;;1.77;;
15946;SDS011;8072;52.554;7.966;2023-08-07T13:20:01;3.13;;;1.80;;
15946;SDS011;8072;52.554;7.966;2023-08-07T13:22:33;8.43;;;2.27;;
15946;SDS011;8072;52.554;7.966;2023-08-07T13:25:00;4.43;;;1.70;;
15946;SDS011;8072;52.554;7.966;2023-08-07T13:27:26;4.80;;;2.13;;
15946;SDS011;8072;52.554;7.966;2023-08-07T13:29:52;5.97;;;2.00;;
15946;SDS011;8072;52.554;7.966;2023-08-07T13:32:18;4.90;;;1.73;;
15946;SDS011;8072;52.554;7.966;2023-08-07T13:34:45;2.80;;;1.33;;
15946;SDS011;8072;52.554;7.966;2023-08-07T13:37:11;5.37;;;2.20;;
15946;SDS011;8072;52.554;7.966;2023-08-07T13:39:37;3.30;;;1.53;;
15946;SDS011;8072;52.554;7.966;2023-08-07T13:42:03;4.80;;;1.80;;
15946;SDS011;8072;52.554;7.966;2023-08-07T13:44:28;5.43;;;1.63;;
15946;SDS011;8072;52.554;7.966;2023-08-07T13:46:54;4.77;;;1.40;;
15946;SDS011;8072;52.554;7.966;2023-08-07T13:49:23;4.53;;;1.60;;
15946;SDS011;8072;52.554;7.966;2023-08-07T13:51:49;5.80;;;1.73;;
15946;SDS011;8072;52.554;7.966;2023-08-07T13:54:15;4.90;;;2.17;;
15946;SDS011;8072;52.554;7.966;2023-08-07T13:56:41;3.37;;;1.70;;
15946;SDS011;8072;52.554;7.966;2023-08-07T13:59:07;4.67;;;1.57;;
15946;SDS011;8072;52.554;7.966;2023-08-07T14:01:34;3.60;;;1.63;;
15946;SDS011;8072;52.554;7.966;2023-08-07T14:04:00;5.90;;;1.80;;
15946;SDS011;8072;52.554;7.966;2023-08-07T14:06:27;4.80;;;1.70;;
15946;SDS011;8072;52.554;7.966;2023-08-07T14:08:53;3.77;;;1.70;;
15946;SDS011;8072;52.554;7.966;2023-08-07T14:11:19;3.67;;;1.67;;
15946;SDS011;8072;52.554;7.966;2023-08-07T14:13:45;4.67;;;1.70;;
15946;SDS011;8072;52.554;7.966;2023-08-07T14:16:12;3.97;;;1.70;;
15946;SDS011;8072;52.554;7.966;2023-08-07T14:18:38;6.60;;;2.00;;
15946;SDS011;8072;52.554;7.966;2023-08-07T14:21:04;4.07;;;1.63;;
15946;SDS011;8072;52.554;7.966;2023-08-07T14:23:30;5.33;;;1.83;;
15946;SDS011;8072;52.554;7.966;2023-08-07T14:25:56;5.70;;;2.13;;
15946;SDS011;8072;52.554;7.966;2023-08-07T14:28:22;3.07;;;2.00;;
15946;SDS011;8072;52.554;7.966;2023-08-07T14:30:48;5.83;;;2.37;;
15946;SDS011;8072;52.554;7.966;2023-08-07T14:33:14;4.27;;;2.40;;
15946;SDS011;8072;52.554;7.966;2023-08-07T14:35:40;5.80;;;1.93;;
15946;SDS011;8072;52.554;7.966;2023-08-07T14:38:06;6.93;;;2.43;;
15946;SDS011;8072;52.554;7.966;2023-08-07T14:40:32;3.40;;;2.07;;
15946;SDS011;8072;52.554;7.966;2023-08-07T14:42:57;4.90;;;2.20;;
15946;SDS011;8072;52.554;7.966;2023-08-07T14:45:23;8.07;;;2.20;;
15946;SDS011;8072;52.554;7.966;2023-08-07T14:47:49;2.30;;;1.30;;
15946;SDS011;8072;52.554;7.966;2023-08-07T14:50:15;3.57;;;1.70;;
15946;SDS011;8072;52.554;7.966;2023-08-07T14:52:44;3.13;;;1.53;;
15946;SDS011;8072;52.554;7.966;2023-08-07T14:55:10;5.03;;;1.87;;
15946;SDS011;8072;52.554;7.966;2023-08-07T14:57:36;3.47;;;1.53;;
15946;SDS011;8072;52.554;7.966;2023-08-07T15:00:01;3.83;;;1.60;;
15946;SDS011;8072;52.554;7.966;2023-08-07T15:02:27;4.60;;;1.80;;
15946;SDS011;8072;52.554;7.966;2023-08-07T15:04:53;2.87;;;1.60;;
15946;SDS011;8072;52.554;7.966;2023-08-07T15:07:19;3.23;;;1.83;;
15946;SDS011;8072;52.554;7.966;2023-08-07T15:09:44;6.80;;;1.90;;
15946;SDS011;8072;52.554;7.966;2023-08-07T15:12:10;5.10;;;1.90;;
15946;SDS011;8072;52.554;7.966;2023-08-07T15:14:36;4.60;;;2.33;;
15946;SDS011;8072;52.554;7.966;2023-08-07T15:17:03;10.77;;;3.40;;
15946;SDS011;8072;52.554;7.966;2023-08-07T15:19:29;7.33;;;1.90;;